createdAt,value
2023-02-19T00:05:54.252Z,7
2023-02-19T00:20:54.238Z,6.9
2023-02-19T00:35:54.200Z,6.9
2023-02-19T00:50:54.182Z,6.7
2023-02-19T01:05:54.143Z,6.8
2023-02-19T01:20:54.180Z,6.6
2023-02-19T01:35:54.155Z,6.2
2023-02-19T01:50:54.148Z,5.9
2023-02-19T02:05:54.127Z,5.8
2023-02-19T02:20:54.152Z,5.9
2023-02-19T02:35:54.102Z,6
2023-02-19T02:50:54.099Z,6.1
2023-02-19T03:05:54.067Z,6.1
2023-02-19T03:20:54.067Z,5.8
2023-02-19T03:35:54.021Z,5.6
2023-02-19T03:50:54.044Z,5.5
2023-02-19T04:05:54.003Z,5.4
2023-02-19T04:20:54.043Z,5.3
2023-02-19T04:35:53.989Z,5.3
2023-02-19T04:50:53.993Z,5
2023-02-19T05:05:53.943Z,5
2023-02-19T05:20:53.956Z,5.1
2023-02-19T05:35:53.946Z,5
2023-02-19T05:50:53.943Z,4.5
2023-02-19T06:05:53.924Z,4.5
2023-02-19T06:20:53.921Z,4.5
2023-02-19T06:35:53.872Z,4.2
2023-02-19T06:50:53.887Z,4.2
2023-02-19T07:05:53.888Z,4.2
2023-02-19T07:20:53.870Z,4.2
2023-02-19T07:35:53.830Z,6.7
2023-02-19T07:50:53.831Z,9.7
2023-02-19T08:05:53.835Z,10.5
2023-02-19T08:20:53.824Z,11.2
2023-02-19T08:35:53.730Z,14.3
2023-02-19T08:50:53.767Z,14
2023-02-19T09:05:53.690Z,12.7
2023-02-19T09:20:53.709Z,10.8
2023-02-19T09:35:53.648Z,9.8
2023-02-19T09:50:53.684Z,9.7
2023-02-19T10:05:53.623Z,9.9
2023-02-19T10:20:53.627Z,10.4
2023-02-19T10:35:53.614Z,11.1
2023-02-19T10:50:53.617Z,12.4
2023-02-19T11:05:53.556Z,14.1
2023-02-19T11:20:53.573Z,15
2023-02-19T11:35:53.506Z,14.9
2023-02-19T11:50:53.527Z,14.7
2023-02-19T12:05:53.452Z,13.9
2023-02-19T12:20:53.435Z,13.7
2023-02-19T12:35:53.417Z,13.6
2023-02-19T12:50:53.397Z,13.9
2023-02-19T13:05:53.362Z,13.7
2023-02-19T13:20:53.414Z,13.7
2023-02-19T13:35:53.328Z,13.4
2023-02-19T13:50:53.342Z,13.2
2023-02-19T14:05:53.285Z,13.1
2023-02-19T14:20:53.286Z,13.1
2023-02-19T14:35:53.240Z,12.9
2023-02-19T14:50:53.255Z,12.8
2023-02-19T15:05:53.170Z,12.7
2023-02-19T15:20:53.219Z,12.6
2023-02-19T15:35:53.150Z,12.3
2023-02-19T15:50:53.176Z,12.3
2023-02-19T16:05:53.124Z,12.1
2023-02-19T16:20:53.133Z,11.7
2023-02-19T16:35:53.099Z,11.5
2023-02-19T16:50:53.104Z,11.3
2023-02-19T17:05:53.037Z,11.1
2023-02-19T17:20:53.064Z,11
2023-02-19T17:35:52.988Z,11
2023-02-19T17:50:53.007Z,11
2023-02-19T18:05:52.960Z,11
2023-02-19T18:20:52.974Z,10.9
2023-02-19T18:35:52.916Z,10.8
2023-02-19T18:50:52.917Z,10.7
2023-02-19T19:05:52.868Z,10.7
2023-02-19T19:20:52.914Z,10.6
2023-02-19T19:35:52.847Z,10.7
2023-02-19T19:50:52.841Z,10.7
2023-02-19T20:05:52.799Z,10.7
2023-02-19T20:20:52.806Z,10.6
2023-02-19T20:35:52.755Z,10.7
2023-02-19T20:50:52.768Z,10.6
2023-02-19T21:05:52.727Z,10.6
2023-02-19T21:20:52.756Z,10.5
2023-02-19T21:35:52.683Z,10.4
2023-02-19T21:50:52.732Z,10.3
2023-02-19T22:05:52.646Z,10.3
2023-02-19T22:20:52.669Z,10.2
2023-02-19T22:35:52.611Z,10.2
2023-02-19T22:50:52.646Z,10.1
2023-02-19T23:05:52.579Z,9.7
2023-02-19T23:20:52.580Z,9.5
2023-02-19T23:35:52.541Z,9.2
2023-02-19T23:50:52.566Z,9.2
